Time;durP1;ratioP1;P1;durP2;ratioP2;P2;SDS_P1;SDS_P2;PMS_P1;PMS_P2;Temp;Humidity;BMP_temperature;BMP_pressure;BME280_temperature;BME280_humidity;BME280_pressure;Samples;Min_cycle;Max_cycle;Signal;HPM_P1;HPM_P2
2023/06/17 00:02:04;;;;;;;23.20;21.05;;;;;;;18.71;60.58;99951.06;5014605;28;98849;-92
2023/06/17 00:04:29;;;;;;;23.20;21.30;;;;;;;18.70;60.07;99953.81;5016228;28;97040;-90
2023/06/17 00:06:55;;;;;;;23.20;21.27;;;;;;;18.66;60.67;99941.72;5016620;28;96780;-90
2023/06/17 00:09:20;;;;;;;22.77;20.75;;;;;;;18.68;60.46;99939.81;5013049;28;98926;-90
2023/06/17 00:11:47;;;;;;;22.52;20.52;;;;;;;18.60;60.88;99926.22;5015962;28;98430;-90
2023/06/17 00:14:14;;;;;;;23.25;21.45;;;;;;;18.67;60.64;99943.41;4998224;28;96728;-90
2023/06/17 00:16:43;;;;;;;22.80;20.85;;;;;;;18.64;60.68;99938.31;5016419;28;96786;-89
2023/06/17 00:19:15;;;;;;;23.10;21.13;;;;;;;18.66;60.42;99936.41;4997429;28;98702;-90
2023/06/17 00:21:42;;;;;;;22.30;20.45;;;;;;;18.59;60.80;99933.38;4998532;28;97225;-90
2023/06/17 00:24:07;;;;;;;24.02;21.80;;;;;;;18.56;60.75;99938.91;5015698;28;96802;-90
2023/06/17 00:26:33;;;;;;;23.23;21.30;;;;;;;18.57;61.00;99934.44;5016152;28;98054;-90
2023/06/17 00:28:58;;;;;;;21.60;20.00;;;;;;;18.52;60.98;99932.09;5015101;28;99197;-90
2023/06/17 00:31:24;;;;;;;22.63;20.88;;;;;;;18.47;60.88;99927.13;5015647;28;97255;-91
2023/06/17 00:33:49;;;;;;;22.80;20.80;;;;;;;18.43;61.11;99916.84;5026430;28;97341;-90
2023/06/17 00:36:15;;;;;;;23.00;20.88;;;;;;;18.50;60.94;99931.34;5019215;28;96943;-90
2023/06/17 00:38:40;;;;;;;21.52;19.60;;;;;;;18.49;60.74;99930.50;5015259;28;97661;-90
2023/06/17 00:41:06;;;;;;;21.95;20.33;;;;;;;18.48;60.75;99931.47;5015515;28;98812;-90
2023/06/17 00:43:31;;;;;;;23.15;21.13;;;;;;;18.48;60.80;99934.13;5015757;28;97123;-91
2023/06/17 00:45:57;;;;;;;21.98;20.15;;;;;;;18.48;60.98;99931.47;5015935;28;96866;-90
2023/06/17 00:48:23;;;;;;;22.13;20.42;;;;;;;18.42;60.80;99918.66;4997270;28;99274;-91
2023/06/17 00:50:49;;;;;;;22.88;20.92;;;;;;;18.42;60.87;99916.00;5016064;28;97683;-91
2023/06/17 00:53:15;;;;;;;22.60;20.60;;;;;;;18.44;60.81;99927.38;4997315;28;96764;-90
2023/06/17 00:55:41;;;;;;;23.63;21.35;;;;;;;18.43;60.79;99930.97;4998139;28;97005;-90
2023/06/17 00:58:07;;;;;;;22.15;20.05;;;;;;;18.38;60.88;99919.81;5014198;28;98997;-91
2023/06/17 01:00:32;;;;;;;22.95;21.00;;;;;;;18.37;61.02;99926.09;4997517;28;98451;-90
2023/06/17 01:02:58;;;;;;;24.52;21.92;;;;;;;18.31;61.09;99924.72;5015024;28;96686;-90
2023/06/17 01:05:24;;;;;;;23.25;21.45;;;;;;;18.27;60.95;99910.00;5015721;28;97042;-89
2023/06/17 01:07:56;;;;;;;23.52;21.27;;;;;;;18.25;60.96;99903.09;5014715;28;99220;-89
2023/06/17 01:10:33;;;;;;;25.08;22.58;;;;;;;18.24;60.94;99912.88;4997292;28;97650;-91
2023/06/17 01:13:00;;;;;;;23.50;21.52;;;;;;;18.21;61.14;99920.19;4996648;28;96740;-92
2023/06/17 01:15:26;;;;;;;22.75;20.65;;;;;;;18.18;61.05;99923.06;4996872;28;96891;-90
2023/06/17 01:17:54;;;;;;;22.48;20.55;;;;;;;18.14;61.17;99918.94;4980173;28;100224;-91
2023/06/17 01:20:21;;;;;;;23.05;21.30;;;;;;;18.17;61.27;99927.53;4980384;28;98350;-91
2023/06/17 01:22:49;;;;;;;23.67;21.25;;;;;;;18.16;61.47;99925.00;4996866;28;96788;-90
2023/06/17 01:25:14;;;;;;;22.85;20.83;;;;;;;18.03;61.44;99919.69;4997550;28;96873;-90
2023/06/17 01:27:41;;;;;;;23.65;21.35;;;;;;;18.03;61.59;99933.81;4966317;28;98868;-90
2023/06/17 01:30:08;;;;;;;24.23;21.90;;;;;;;18.05;61.50;99931.91;4996887;28;99441;-91
2023/06/17 01:32:34;;;;;;;22.50;20.88;;;;;;;18.03;61.50;99925.84;4997060;28;96635;-90
2023/06/17 01:35:04;;;;;;;22.75;20.70;;;;;;;17.97;61.48;99915.66;5010659;28;96908;-90
2023/06/17 01:37:35;;;;;;;22.17;20.20;;;;;;;17.96;61.45;99916.66;5014153;28;99915;-90
2023/06/17 01:40:01;;;;;;;23.48;21.20;;;;;;;18.01;61.41;99926.94;5015338;28;98237;-90
2023/06/17 01:42:34;;;;;;;24.05;21.73;;;;;;;18.00;61.43;99931.38;4980127;28;96917;-91
2023/06/17 01:45:03;;;;;;;22.95;20.98;;;;;;;17.97;61.19;99925.44;4997237;28;97271;-91
2023/06/17 01:47:29;;;;;;;22.27;20.17;;;;;;;17.97;61.92;99928.94;4995757;28;97667;-90
2023/06/17 01:49:58;;;;;;;22.80;20.90;;;;;;;17.93;61.76;99931.94;4979826;28;100689;-90
2023/06/17 01:52:25;;;;;;;21.88;19.98;;;;;;;17.94;61.46;99937.13;5014259;28;97141;-90
2023/06/17 01:54:51;;;;;;;22.08;20.08;;;;;;;17.93;61.73;99937.25;5014581;28;96769;-90
2023/06/17 01:57:17;;;;;;;22.52;20.75;;;;;;;17.87;61.91;99928.75;5014316;28;98861;-90
2023/06/17 01:59:43;;;;;;;23.88;21.55;;;;;;;17.93;61.69;99929.28;4996144;28;99450;-91
2023/06/17 02:02:08;;;;;;;22.23;20.30;;;;;;;17.90;61.58;99927.69;5014604;28;97272;-91
2023/06/17 02:04:35;;;;;;;24.30;21.77;;;;;;;17.97;61.88;99933.41;4980793;28;96850;-90
2023/06/17 02:07:01;;;;;;;23.00;20.92;;;;;;;17.86;61.64;99910.31;5014324;28;97552;-91
2023/06/17 02:09:27;;;;;;;24.95;22.80;;;;;;;17.98;61.88;99933.31;5013651;28;98406;-90
2023/06/17 02:11:52;;;;;;;22.83;20.60;;;;;;;18.02;62.00;99931.28;5010572;28;97421;-90
2023/06/17 02:14:18;;;;;;;22.80;21.20;;;;;;;17.97;61.88;99920.13;5014144;28;96559;-90
2023/06/17 02:16:47;;;;;;;22.98;20.92;;;;;;;18.04;61.92;99934.69;4996132;28;99514;-90
2023/06/17 02:19:15;;;;;;;23.98;22.00;;;;;;;18.03;61.71;99930.31;4999814;28;98319;-90
2023/06/17 02:21:41;;;;;;;22.23;20.33;;;;;;;18.00;61.91;99922.56;5014152;28;96674;-90
2023/06/17 02:24:07;;;;;;;24.20;22.30;;;;;;;18.05;61.75;99928.41;5013549;28;96729;-90
2023/06/17 02:26:32;;;;;;;23.42;21.38;;;;;;;18.00;61.71;99920.75;5013242;28;98897;-90
2023/06/17 02:28:58;;;;;;;23.77;21.67;;;;;;;18.07;61.97;99934.47;4995884;28;99252;-90
2023/06/17 02:31:26;;;;;;;23.63;21.13;;;;;;;18.08;61.76;99938.81;5014112;28;96884;-90
2023/06/17 02:33:52;;;;;;;22.80;21.02;;;;;;;18.04;61.99;99924.91;5013644;28;97330;-90
2023/06/17 02:36:18;;;;;;;23.83;21.48;;;;;;;18.09;61.75;99927.22;5013548;28;98598;-92
2023/06/17 02:38:46;;;;;;;22.80;20.65;;;;;;;18.10;61.92;99928.94;4996421;28;100196;-89
2023/06/17 02:41:12;;;;;;;23.90;21.48;;;;;;;18.05;61.59;99917.78;5022121;28;96675;-90
2023/06/17 02:43:38;;;;;;;23.38;21.58;;;;;;;18.10;61.70;99932.44;5002569;28;97351;-90
2023/06/17 02:46:03;;;;;;;26.02;21.95;;;;;;;18.03;61.79;99917.88;5013688;28;99058;-90
2023/06/17 02:48:31;;;;;;;23.67;21.23;;;;;;;18.11;62.00;99925.31;4995067;28;99337;-90
2023/06/17 02:50:56;;;;;;;25.17;22.58;;;;;;;18.07;61.75;99916.72;5014157;28;96748;-90
2023/06/17 02:53:22;;;;;;;21.35;19.60;;;;;;;18.06;61.76;99917.69;4995906;28;97002;-90
2023/06/17 02:55:48;;;;;;;23.02;20.85;;;;;;;18.13;61.55;99911.94;4995342;28;99654;-90
2023/06/17 02:58:18;;;;;;;23.83;21.50;;;;;;;18.15;61.54;99915.31;4995377;28;99861;-90
2023/06/17 03:00:46;;;;;;;24.45;22.38;;;;;;;18.20;61.88;99918.50;4995221;28;97106;-90
2023/06/17 03:03:13;;;;;;;23.98;21.75;;;;;;;18.29;61.50;99921.31;4995553;28;96906;-91
2023/06/17 03:05:41;;;;;;;24.50;22.10;;;;;;;18.24;61.55;99910.22;5013501;28;97828;-90
2023/06/17 03:08:07;;;;;;;22.73;20.92;;;;;;;18.37;61.18;99918.13;4978418;28;99320;-90
2023/06/17 03:10:33;;;;;;;24.92;22.70;;;;;;;18.41;61.23;99919.59;4995611;28;96956;-90
2023/06/17 03:13:07;;;;;;;24.58;22.10;;;;;;;18.47;60.92;99926.25;5002922;28;97085;-90
2023/06/17 03:15:33;;;;;;;23.92;22.08;;;;;;;18.42;60.49;99901.84;5001732;28;100144;-90
2023/06/17 03:17:59;;;;;;;23.02;21.15;;;;;;;18.51;60.96;99912.66;5013230;28;98336;-90
2023/06/17 03:20:28;;;;;;;24.52;21.80;;;;;;;18.57;60.98;99921.16;4995311;28;96808;-90
2023/06/17 03:22:55;;;;;;;25.25;22.50;;;;;;;18.59;60.73;99920.06;4995324;28;97441;-89
2023/06/17 03:25:22;;;;;;;24.45;21.95;;;;;;;18.60;60.74;99916.44;4994386;28;99699;-90
2023/06/17 03:27:51;;;;;;;27.23;22.40;;;;;;;18.57;60.78;99906.03;4994870;28;99668;-91
2023/06/17 03:30:17;;;;;;;23.90;21.33;;;;;;;18.66;60.68;99929.28;4994012;28;97091;-91
2023/06/17 03:32:44;;;;;;;24.05;21.85;;;;;;;18.62;60.58;99917.19;5013525;28;96868;-90
2023/06/17 03:35:10;;;;;;;22.95;20.70;;;;;;;18.66;60.74;99915.16;4995086;28;99506;-90
2023/06/17 03:37:36;;;;;;;23.70;21.67;;;;;;;18.74;60.64;99921.63;4997229;28;100957;-91
2023/06/17 03:40:02;;;;;;;23.70;21.33;;;;;;;18.74;60.78;99913.66;4999077;28;97198;-90
2023/06/17 03:42:31;;;;;;;22.70;21.17;;;;;;;18.82;60.50;99929.03;4982817;28;96857;-90
2023/06/17 03:44:57;;;;;;;23.13;20.77;;;;;;;18.90;60.62;99931.09;4998521;28;99935;-89
2023/06/17 03:47:23;;;;;;;23.20;21.27;;;;;;;18.98;60.27;99924.25;4997723;28;98046;-90
2023/06/17 03:49:49;;;;;;;22.08;20.38;;;;;;;19.02;59.93;99916.03;4998374;28;96821;-89
2023/06/17 03:52:15;;;;;;;26.58;22.23;;;;;;;19.09;59.80;99928.78;4994691;28;96943;-90
2023/06/17 03:54:40;;;;;;;21.73;20.00;;;;;;;19.15;59.82;99935.44;4994885;28;99201;-91
2023/06/17 03:57:06;;;;;;;22.90;20.65;;;;;;;19.15;59.83;99936.28;4997737;28;100266;-91
2023/06/17 03:59:33;;;;;;;23.90;21.90;;;;;;;19.04;59.88;99916.78;4998838;28;96619;-90
2023/06/17 04:01:59;;;;;;;23.17;21.20;;;;;;;19.11;59.77;99918.88;5015434;28;97072;-89
2023/06/17 04:04:28;;;;;;;21.95;20.15;;;;;;;19.16;59.53;99923.81;4997521;28;99410;-91
2023/06/17 04:06:54;;;;;;;22.65;21.00;;;;;;;19.23;59.51;99927.72;5015905;28;96711;-90
2023/06/17 04:09:20;;;;;;;22.92;20.67;;;;;;;19.14;59.51;99902.66;5016213;28;96728;-90
2023/06/17 04:11:45;;;;;;;22.00;20.20;;;;;;;19.38;59.03;99931.88;4998167;28;97095;-90
2023/06/17 04:14:11;;;;;;;22.00;20.15;;;;;;;19.37;59.14;99927.53;5015372;28;98000;-91
2023/06/17 04:16:36;;;;;;;22.50;20.58;;;;;;;19.46;58.89;99917.97;4998095;28;99004;-91
2023/06/17 04:19:02;;;;;;;21.80;19.85;;;;;;;19.58;58.71;99935.66;4981925;28;96806;-90
2023/06/17 04:21:28;;;;;;;22.65;20.73;;;;;;;19.62;58.63;99936.25;5007346;28;97501;-90
2023/06/17 04:23:54;;;;;;;22.27;20.48;;;;;;;19.66;58.62;99929.75;5002948;28;99942;-89
2023/06/17 04:26:20;;;;;;;22.83;20.80;;;;;;;19.65;58.35;99926.25;4997028;28;98918;-91
2023/06/17 04:28:47;;;;;;;22.95;21.02;;;;;;;19.76;58.27;99933.41;4998103;28;96923;-91
2023/06/17 04:31:15;;;;;;;21.52;19.85;;;;;;;19.69;58.07;99910.88;4998052;28;97078;-90
2023/06/17 04:33:41;;;;;;;23.13;21.05;;;;;;;19.94;57.97;99940.91;4997461;28;100482;-91
2023/06/17 04:36:08;;;;;;;23.55;21.13;;;;;;;19.91;57.84;99928.69;4997270;28;99118;-91
2023/06/17 04:38:39;;;;;;;22.52;20.52;;;;;;;19.94;57.82;99927.59;4997768;28;96585;-91
2023/06/17 04:41:05;;;;;;;21.87;20.07;;;;;;;19.94;57.71;99924.94;4997744;28;97005;-90
2023/06/17 04:43:38;;;;;;;22.92;20.70;;;;;;;19.98;57.68;99921.03;5014284;28;100244;-91
2023/06/17 04:46:09;;;;;;;22.65;20.23;;;;;;;20.06;57.48;99919.47;4997615;28;100248;-90
2023/06/17 04:48:36;;;;;;;21.90;20.00;;;;;;;20.20;57.08;99926.34;5015553;28;96831;-91
2023/06/17 04:51:03;;;;;;;22.75;21.15;;;;;;;20.41;56.59;99925.59;4997778;28;96878;-91
2023/06/17 04:53:29;;;;;;;23.92;22.08;;;;;;;20.76;55.87;99926.22;4999650;28;100327;-90
2023/06/17 04:55:55;;;;;;;21.05;19.50;;;;;;;20.76;55.94;99920.91;5009480;28;99296;-91
2023/06/17 04:58:21;;;;;;;22.38;20.38;;;;;;;20.80;55.57;99917.03;4998561;28;96808;-90
2023/06/17 05:00:49;;;;;;;23.48;21.52;;;;;;;21.00;55.10;99912.69;5015537;28;96735;-90
2023/06/17 05:03:19;;;;;;;22.23;20.15;;;;;;;21.23;54.91;99920.56;5009560;28;99249;-91
2023/06/17 05:05:45;;;;;;;24.23;22.13;;;;;;;21.38;54.83;99911.31;4997512;28;99965;-91
2023/06/17 05:08:11;;;;;;;22.13;20.08;;;;;;;21.59;54.56;99918.44;4997496;28;96784;-91
2023/06/17 05:10:36;;;;;;;23.33;19.88;;;;;;;21.73;53.91;99911.88;5013470;28;96890;-91
2023/06/17 05:13:02;;;;;;;22.65;20.50;;;;;;;21.90;53.68;99928.16;4996919;28;98887;-90
2023/06/17 05:15:30;;;;;;;22.70;20.73;;;;;;;21.92;53.32;99917.31;4996390;28;99775;-91
2023/06/17 05:17:56;;;;;;;23.52;21.13;;;;;;;22.42;52.34;99911.16;4981023;28;96819;-91
2023/06/17 05:20:22;;;;;;;22.00;20.08;;;;;;;22.82;51.76;99906.53;4997913;28;97489;-90
2023/06/17 05:22:48;;;;;;;22.55;20.42;;;;;;;23.32;51.09;99920.75;4996563;28;99904;-89
2023/06/17 05:25:14;;;;;;;23.38;21.08;;;;;;;23.75;49.73;99927.47;4996454;28;98913;-90
2023/06/17 05:27:39;;;;;;;22.10;20.20;;;;;;;24.02;48.65;99924.78;4996178;28;97267;-89
2023/06/17 05:30:07;;;;;;;22.05;20.02;;;;;;;23.77;48.89;99909.41;4997062;28;97199;-89
2023/06/17 05:32:32;;;;;;;22.58;20.73;;;;;;;23.43;49.58;99923.28;4996296;28;99473;-90
2023/06/17 05:34:59;;;;;;;22.77;20.73;;;;;;;22.95;50.29;99918.81;4996862;28;100114;-90
2023/06/17 05:37:25;;;;;;;21.85;20.10;;;;;;;22.61;50.67;99913.88;5015226;28;96661;-90
2023/06/17 05:39:50;;;;;;;23.38;21.45;;;;;;;22.58;50.98;99924.84;4997040;28;96883;-90
2023/06/17 05:42:16;;;;;;;22.05;20.20;;;;;;;22.49;51.05;99920.34;5014291;28;99100;-89
2023/06/17 05:44:43;;;;;;;23.20;21.05;;;;;;;22.56;50.84;99930.31;4996966;28;100022;-90
2023/06/17 05:47:09;;;;;;;22.42;20.63;;;;;;;22.74;50.59;99932.31;5003001;28;96881;-91
2023/06/17 05:49:34;;;;;;;22.67;20.98;;;;;;;22.99;50.10;99922.94;5004580;28;96931;-90
2023/06/17 05:52:00;;;;;;;21.05;19.63;;;;;;;23.37;49.33;99929.22;4995793;28;98891;-89
2023/06/17 05:54:25;;;;;;;23.35;20.92;;;;;;;23.67;48.92;99928.97;4996687;28;100359;-90
2023/06/17 05:56:51;;;;;;;23.50;21.48;;;;;;;23.83;48.29;99922.22;4996385;28;96815;-91
2023/06/17 05:59:17;;;;;;;22.70;20.70;;;;;;;24.26;47.62;99913.53;4996225;28;96856;-91
2023/06/17 06:01:43;;;;;;;23.75;21.45;;;;;;;24.68;46.83;99929.09;5013831;28;98578;-91
2023/06/17 06:04:08;;;;;;;22.50;20.67;;;;;;;24.85;46.19;99930.09;4996409;28;100581;-91
2023/06/17 06:06:34;;;;;;;22.52;20.92;;;;;;;25.05;45.71;99934.31;5014315;28;96653;-90
2023/06/17 06:08:59;;;;;;;23.73;21.30;;;;;;;25.84;44.51;99935.25;5018936;28;96784;-91
2023/06/17 06:11:25;;;;;;;22.60;20.90;;;;;;;26.72;42.48;99912.53;5006190;28;100295;-90
2023/06/17 06:13:52;;;;;;;23.83;21.45;;;;;;;29.22;38.39;99919.28;4995883;28;98585;-91
2023/06/17 06:16:18;;;;;;;22.92;20.67;;;;;;;33.02;32.63;99917.09;4995928;28;97123;-91
2023/06/17 06:18:43;;;;;;;22.58;20.60;;;;;;;31.32;34.66;99923.16;5027426;28;97051;-91
2023/06/17 06:21:10;;;;;;;20.73;19.23;;;;;;;29.63;36.83;99908.09;5026808;28;98558;-91
2023/06/17 06:23:36;;;;;;;21.90;19.83;;;;;;;28.53;38.62;99930.06;5015981;28;97457;-91
2023/06/17 06:26:01;;;;;;;22.52;20.92;;;;;;;27.50;40.02;99920.97;5013099;28;96941;-90
2023/06/17 06:28:28;;;;;;;21.73;20.25;;;;;;;27.08;41.18;99932.75;5002043;28;96960;-90
2023/06/17 06:30:53;;;;;;;22.52;20.65;;;;;;;27.07;41.02;99935.63;5001746;28;99319;-91
2023/06/17 06:33:21;;;;;;;22.10;20.15;;;;;;;26.59;41.74;99943.47;4997506;28;98718;-90
2023/06/17 06:35:48;;;;;;;22.55;20.77;;;;;;;25.88;42.44;99941.16;4999916;28;96786;-90
2023/06/17 06:38:17;;;;;;;22.63;20.83;;;;;;;25.46;43.78;99952.63;4999806;28;96870;-90
2023/06/17 06:40:42;;;;;;;23.10;21.30;;;;;;;25.01;44.42;99943.66;4998834;28;100500;-90
2023/06/17 06:43:08;;;;;;;22.77;21.10;;;;;;;24.59;45.18;99946.94;4999360;28;100194;-90
2023/06/17 06:45:57;;;;;;;22.42;20.52;;;;;;;24.23;45.90;99950.50;5021406;28;96742;-90
2023/06/17 06:48:22;;;;;;;22.50;20.92;;;;;;;23.98;46.52;99947.53;5015796;28;96763;-90
2023/06/17 06:50:49;;;;;;;23.08;21.35;;;;;;;23.95;46.78;99962.06;5018393;28;97596;-90
2023/06/17 06:53:19;;;;;;;23.00;21.10;;;;;;;23.91;46.88;99963.38;5004619;28;98691;-90
2023/06/17 06:55:44;;;;;;;23.30;21.27;;;;;;;23.84;47.05;99954.22;5000613;28;96787;-90
2023/06/17 06:58:10;;;;;;;22.85;21.25;;;;;;;24.00;46.66;99955.41;5028333;28;96784;-91
2023/06/17 07:00:36;;;;;;;22.50;20.90;;;;;;;24.17;46.14;99954.63;5013449;28;97685;-90
2023/06/17 07:03:02;;;;;;;22.27;20.63;;;;;;;24.34;45.72;99945.78;4995306;28;99238;-91
2023/06/17 07:05:28;;;;;;;23.70;21.85;;;;;;;24.79;45.60;99954.88;5008154;28;96867;-90
2023/06/17 07:08:00;;;;;;;21.30;19.67;;;;;;;25.20;44.46;99948.06;5003881;28;97017;-91
2023/06/17 07:10:26;;;;;;;22.13;20.35;;;;;;;26.56;42.21;99951.88;5011948;28;100675;-90
2023/06/17 07:12:51;;;;;;;21.52;20.13;;;;;;;27.10;41.17;99954.13;5001419;28;98651;-91
2023/06/17 07:15:18;;;;;;;20.52;18.95;;;;;;;26.98;40.88;99931.25;5014406;28;96748;-89
2023/06/17 07:17:44;;;;;;;21.48;19.92;;;;;;;27.58;39.86;99941.69;4995209;28;96988;-91
2023/06/17 07:20:10;;;;;;;21.95;20.15;;;;;;;28.65;38.40;99940.28;4996340;28;100058;-83
2023/06/17 07:22:37;;;;;;;22.00;20.40;;;;;;;29.21;37.40;99948.19;5011350;28;100498;-85
2023/06/17 07:25:03;;;;;;;21.98;20.42;;;;;;;31.61;34.02;99929.44;5031546;28;96817;-87
2023/06/17 07:27:29;;;;;;;22.02;20.20;;;;;;;31.62;33.56;99939.25;5012409;28;96707;-89
2023/06/17 07:29:55;;;;;;;22.83;20.90;;;;;;;33.51;31.10;99936.72;5000591;28;98878;-89
2023/06/17 07:32:20;;;;;;;22.23;20.42;;;;;;;35.72;28.61;99935.38;5014394;28;100372;-93
2023/06/17 07:34:46;;;;;;;20.58;19.27;;;;;;;44.10;20.46;99912.09;5028052;28;96737;-93
2023/06/17 07:37:12;;;;;;;21.13;19.60;;;;;;;38.41;25.03;99917.09;5011101;28;96882;-91
2023/06/17 07:39:37;;;;;;;21.55;19.85;;;;;;;39.37;24.11;99919.88;4998675;28;98815;-89
2023/06/17 07:42:03;;;;;;;20.70;19.15;;;;;;;43.13;20.80;99915.88;4999195;28;97217;-88
2023/06/17 07:44:29;;;;;;;20.98;19.65;;;;;;;47.71;17.29;99907.16;5012638;28;97029;-91
2023/06/17 07:46:55;;;;;;;19.58;18.27;;;;;;;41.01;22.03;99921.84;5026539;28;96692;-93
2023/06/17 07:49:20;;;;;;;20.67;19.30;;;;;;;46.08;18.28;99922.56;5035299;28;98919;-92
2023/06/17 07:51:46;;;;;;;18.70;17.35;;;;;;;50.12;15.17;99908.34;5034259;28;97152;-93
2023/06/17 07:54:12;;;;;;;19.27;18.08;;;;;;;41.29;21.67;99917.97;5015322;28;97086;-94
2023/06/17 07:56:37;;;;;;;20.45;19.02;;;;;;;36.43;26.36;99912.06;5017264;28;97128;-93
2023/06/17 07:59:03;;;;;;;20.35;19.05;;;;;;;34.25;29.07;99930.09;5011932;28;98666;-92
2023/06/17 08:01:28;;;;;;;20.08;18.77;;;;;;;33.25;30.34;99924.84;5014647;28;97406;-92
2023/06/17 08:03:54;;;;;;;20.13;18.85;;;;;;;32.13;31.58;99928.94;5014573;28;97097;-93
2023/06/17 08:06:19;;;;;;;21.13;19.63;;;;;;;32.06;31.90;99933.50;5026992;28;96614;-93
2023/06/17 08:08:45;;;;;;;22.80;20.98;;;;;;;38.15;24.83;99912.97;5024890;28;97833;-94
2023/06/17 08:11:11;;;;;;;21.48;20.10;;;;;;;39.62;23.00;99905.66;5018795;28;98554;-79
2023/06/17 08:13:36;;;;;;;22.13;20.63;;;;;;;44.73;19.30;99915.88;5010812;28;96965;-75
2023/06/17 08:16:02;;;;;;;20.85;19.15;;;;;;;48.91;16.05;99903.91;5010209;28;96837;-78
2023/06/17 08:18:28;;;;;;;21.65;19.83;;;;;;;50.89;14.98;99903.13;5001667;28;98598;-78
2023/06/17 08:20:53;;;;;;;20.38;18.88;;;;;;;51.73;13.88;99904.34;5008275;28;98575;-78
2023/06/17 08:23:20;;;;;;;18.88;17.70;;;;;;;52.23;13.43;99897.09;5010420;28;96935;-78
2023/06/17 08:25:46;;;;;;;19.30;18.20;;;;;;;50.99;14.26;99891.59;5010426;28;97882;-78
2023/06/17 08:28:12;;;;;;;20.20;18.95;;;;;;;44.08;18.78;99903.28;5010445;28;98635;-78
2023/06/17 08:30:37;;;;;;;18.48;17.27;;;;;;;40.53;21.73;99910.69;5009452;28;98427;-78
2023/06/17 08:33:03;;;;;;;19.42;17.98;;;;;;;37.62;24.52;99914.03;5014995;28;97580;-78
2023/06/17 08:35:29;;;;;;;20.73;19.33;;;;;;;36.02;26.42;99910.91;5023892;27;98546;-78
2023/06/17 08:37:54;;;;;;;20.88;19.48;;;;;;;35.03;27.29;99912.69;5025877;28;98657;-78
2023/06/17 08:40:22;;;;;;;19.55;18.25;;;;;;;34.34;28.36;99911.63;5031206;28;98891;-78
2023/06/17 08:42:52;;;;;;;19.77;18.30;;;;;;;33.51;29.47;99912.25;5012973;28;97418;-77
2023/06/17 08:45:17;;;;;;;;;;;;;;;32.74;30.28;99916.41;4999867;28;96799;-76
2023/06/17 08:47:43;;;;;;;19.80;18.40;;;;;;;32.36;31.05;99923.16;4993434;28;98457;-76
2023/06/17 08:50:09;;;;;;;19.70;18.40;;;;;;;32.49;30.98;99916.13;5012100;28;98619;-77
2023/06/17 08:52:36;;;;;;;18.90;17.67;;;;;;;32.56;31.10;99917.84;4993913;28;96731;-76
2023/06/17 08:55:02;;;;;;;19.25;18.05;;;;;;;32.58;31.05;99913.03;4990592;28;97126;-76
2023/06/17 08:57:28;;;;;;;19.35;18.02;;;;;;;32.40;31.46;99912.72;5011280;28;98939;-76
2023/06/17 08:59:53;;;;;;;19.33;18.10;;;;;;;32.28;31.75;99911.66;5017731;28;98326;-77
2023/06/17 09:02:20;;;;;;;20.02;18.67;;;;;;;32.19;31.41;99903.69;5012714;28;98260;-75
2023/06/17 09:04:46;;;;;;;19.05;17.85;;;;;;;31.62;31.78;99901.28;5000196;28;97288;-74
2023/06/17 09:07:12;;;;;;;18.98;17.77;;;;;;;31.01;32.57;99908.13;5014136;28;98761;-74
2023/06/17 09:09:38;;;;;;;20.60;18.85;;;;;;;30.50;33.08;99918.19;5015731;28;98626;-75
2023/06/17 09:12:08;;;;;;;19.02;17.92;;;;;;;29.97;33.61;99921.06;5020853;28;97244;-76
2023/06/17 09:14:34;;;;;;;19.42;18.23;;;;;;;29.56;34.74;99922.31;5012943;28;97176;-75
2023/06/17 09:17:00;;;;;;;19.40;18.10;;;;;;;29.14;35.53;99914.78;5026236;28;98601;-74
2023/06/17 09:19:29;;;;;;;20.08;18.77;;;;;;;28.85;35.85;99919.03;4999815;28;98166;-73
2023/06/17 09:21:55;;;;;;;20.88;19.45;;;;;;;28.55;36.54;99918.06;5023795;28;96924;-74
2023/06/17 09:24:28;;;;;;;19.45;18.05;;;;;;;28.38;37.04;99927.25;5018205;28;97414;-74
2023/06/17 09:26:53;;;;;;;19.92;18.08;;;;;;;28.27;37.52;99917.69;5026226;28;98622;-74
2023/06/17 09:29:21;;;;;;;19.08;17.80;;;;;;;28.27;37.70;99911.44;5026016;28;98559;-74
2023/06/17 09:31:54;;;;;;;20.35;18.83;;;;;;;28.43;37.41;99927.59;5015726;28;97517;-75
2023/06/17 09:34:21;;;;;;;19.67;18.38;;;;;;;28.58;36.96;99920.41;4988704;28;97725;-75
2023/06/17 09:36:52;;;;;;;19.73;18.33;;;;;;;28.58;36.83;99920.41;5007368;28;98982;-74
2023/06/17 09:39:18;;;;;;;18.73;17.52;;;;;;;28.30;36.85;99920.03;5011268;28;98247;-75
2023/06/17 09:41:44;;;;;;;18.80;17.60;;;;;;;28.20;37.59;99927.50;5012128;28;97329;-74
2023/06/17 09:44:10;;;;;;;21.00;19.60;;;;;;;28.07;37.80;99920.00;5017189;28;97307;-76
2023/06/17 09:46:37;;;;;;;19.83;18.17;;;;;;;28.09;38.14;99926.03;4998547;28;98910;-89
2023/06/17 09:49:10;;;;;;;20.08;18.60;;;;;;;28.24;38.05;99918.03;4996898;28;98905;-85
2023/06/17 09:51:37;;;;;;;20.65;19.10;;;;;;;28.33;38.10;99927.78;4998812;28;97458;-86
2023/06/17 09:54:04;;;;;;;19.92;18.58;;;;;;;28.27;37.98;99923.06;4995405;28;98268;-88
2023/06/17 09:56:31;;;;;;;18.48;17.38;;;;;;;28.36;37.37;99915.78;5010294;28;99218;-85
2023/06/17 09:58:57;;;;;;;20.30;18.85;;;;;;;28.43;37.10;99923.03;5024346;28;98496;-86
2023/06/17 10:01:30;;;;;;;18.48;17.17;;;;;;;28.46;37.55;99916.44;5005549;28;98154;-84
2023/06/17 10:03:59;;;;;;;19.25;17.98;;;;;;;28.41;37.59;99924.19;4999189;28;97417;-87
2023/06/17 10:06:33;;;;;;;19.30;18.02;;;;;;;28.33;37.51;99927.78;4999045;28;97693;-86
2023/06/17 10:09:00;;;;;;;19.30;17.73;;;;;;;28.18;37.39;99916.88;4992394;28;99184;-85
2023/06/17 10:11:27;;;;;;;18.10;16.90;;;;;;;28.20;37.79;99924.81;4987520;28;97408;-88
2023/06/17 10:13:56;;;;;;;19.55;18.25;;;;;;;28.13;37.77;99915.72;4987705;28;97587;-87
2023/06/17 10:16:23;;;;;;;18.15;16.85;;;;;;;28.18;38.13;99927.66;4992575;28;98796;-87
2023/06/17 10:18:51;;;;;;;18.63;17.30;;;;;;;28.22;38.22;99917.38;4996808;28;98647;-89
2023/06/17 10:21:17;;;;;;;19.50;18.30;;;;;;;28.24;38.09;99919.88;4996537;28;97251;-86
2023/06/17 10:23:43;;;;;;;18.98;17.65;;;;;;;28.11;38.25;99897.03;5001579;28;98113;-93
2023/06/17 10:26:11;;;;;;;19.50;18.15;;;;;;;28.29;38.11;99918.34;4994543;28;98623;-95
2023/06/17 10:28:44;;;;;;;19.08;17.63;;;;;;;28.32;38.31;99907.19;5013599;28;98395;-89
2023/06/17 10:31:27;;;;;;;19.58;18.17;;;;;;;28.43;38.05;99908.69;5010489;28;97215;-88
2023/06/17 10:33:54;;;;;;;19.27;17.98;;;;;;;28.42;37.84;99894.38;5024433;28;96793;-89
2023/06/17 10:36:21;;;;;;;19.10;17.90;;;;;;;28.57;37.81;99904.41;5018591;28;99409;-85
2023/06/17 10:38:57;;;;;;;19.83;18.35;;;;;;;28.62;37.88;99904.69;5013347;28;98640;-84
2023/06/17 10:41:28;;;;;;;17.88;16.63;;;;;;;28.52;38.00;99896.81;5009681;28;97122;-80
2023/06/17 10:43:53;;;;;;;18.65;17.33;;;;;;;28.52;37.85;99898.69;5000053;28;96861;-72
2023/06/17 10:46:25;;;;;;;18.63;17.48;;;;;;;28.47;37.47;99884.88;5009173;28;98533;-77
2023/06/17 10:48:50;;;;;;;19.02;17.73;;;;;;;28.41;38.12;99894.50;5009089;28;99166;-84
2023/06/17 10:51:18;;;;;;;18.80;17.63;;;;;;;28.26;38.59;99889.03;5020508;28;97574;-75
2023/06/17 10:53:51;;;;;;;20.10;18.58;;;;;;;28.05;38.87;99888.81;5012189;28;97276;-75
2023/06/17 10:56:16;;;;;;;18.92;17.73;;;;;;;27.88;38.66;99893.41;5019386;28;99686;-76
2023/06/17 10:58:47;;;;;;;19.50;17.73;;;;;;;27.74;37.64;99892.25;5011084;28;97996;-77
2023/06/17 11:01:12;;;;;;;19.23;18.00;;;;;;;27.59;38.17;99894.00;5009494;28;97234;-76
2023/06/17 11:03:38;;;;;;;18.98;17.67;;;;;;;27.54;38.41;99887.25;5019354;28;97655;-76
2023/06/17 11:06:05;;;;;;;19.30;17.85;;;;;;;27.50;38.82;99883.22;5020948;28;99034;-80
2023/06/17 11:08:33;;;;;;;19.73;18.52;;;;;;;27.49;38.57;99875.31;5000193;28;98811;-78
2023/06/17 11:11:09;;;;;;;19.30;17.90;;;;;;;27.48;38.78;99881.72;5011095;28;97180;-75
2023/06/17 11:13:36;;;;;;;19.85;18.42;;;;;;;27.50;39.03;99883.22;5013153;28;97180;-76
2023/06/17 11:16:02;;;;;;;19.95;18.65;;;;;;;27.44;37.53;99878.53;5007485;28;98669;-76